createdAt,value
2019-05-20T00:00:19.594Z,9.90
2019-05-20T00:01:19.624Z,7.20
2019-05-20T00:02:25.955Z,6.00
2019-05-20T00:03:20.584Z,7.10
2019-05-20T00:04:19.551Z,7.20
2019-05-20T00:05:19.546Z,9.90
2019-05-20T00:06:19.537Z,6.90
2019-05-20T00:07:19.537Z,8.00
2019-05-20T00:08:19.511Z,7.80
2019-05-20T00:09:19.511Z,6.00
2019-05-20T00:10:19.485Z,9.10
2019-05-20T00:11:19.473Z,10.10
2019-05-20T00:12:19.471Z,6.70
2019-05-20T00:13:19.452Z,10.10
2019-05-20T00:14:19.446Z,7.70
2019-05-20T00:15:19.430Z,8.50
2019-05-20T00:16:19.451Z,7.50
2019-05-20T00:17:19.413Z,7.50
2019-05-20T00:18:19.403Z,6.80
2019-05-20T00:19:19.401Z,6.30
2019-05-20T00:20:19.377Z,8.30
2019-05-20T00:21:19.364Z,7.90
2019-05-20T00:22:19.355Z,7.00
2019-05-20T00:23:19.437Z,6.60
2019-05-20T00:24:19.338Z,6.70
2019-05-20T00:25:19.326Z,7.60
2019-05-20T00:26:19.309Z,7.70
2019-05-20T00:27:19.306Z,8.00
2019-05-20T00:28:19.289Z,7.60
2019-05-20T00:29:19.281Z,10.40
2019-05-20T00:30:19.278Z,6.30
2019-05-20T00:31:19.268Z,7.00
2019-05-20T00:32:19.245Z,6.90
2019-05-20T00:33:19.239Z,6.80
2019-05-20T00:34:34.329Z,7.70
2019-05-20T00:35:20.217Z,6.00
2019-05-20T00:36:19.203Z,7.20
2019-05-20T00:37:19.193Z,7.80
2019-05-20T00:38:19.182Z,7.20
2019-05-20T00:39:19.169Z,9.80
2019-05-20T00:40:19.168Z,10.90
2019-05-20T00:41:19.148Z,8.10
2019-05-20T00:42:19.142Z,8.90
2019-05-20T00:43:19.123Z,8.20
2019-05-20T00:44:19.131Z,8.70
2019-05-20T00:45:19.286Z,7.40
2019-05-20T00:46:19.098Z,7.80
2019-05-20T00:47:19.089Z,7.20
2019-05-20T00:48:19.070Z,8.60
2019-05-20T00:49:19.097Z,7.20
2019-05-20T00:50:19.048Z,8.60
2019-05-20T00:51:19.042Z,7.30
2019-05-20T00:52:19.027Z,9.30
2019-05-20T00:53:19.015Z,8.50
2019-05-20T00:54:19.056Z,10.30
2019-05-20T00:55:18.995Z,8.30
2019-05-20T00:56:18.981Z,11.00
2019-05-20T00:57:18.969Z,7.50
2019-05-20T00:58:18.986Z,7.30
2019-05-20T00:59:18.951Z,8.00
2019-05-20T01:00:18.939Z,11.40
2019-05-20T01:01:18.925Z,9.40
2019-05-20T01:02:18.914Z,7.90
2019-05-20T01:03:18.912Z,9.90
2019-05-20T01:04:18.894Z,8.80
2019-05-20T01:05:18.882Z,8.00
2019-05-20T01:06:18.875Z,9.40
2019-05-20T01:07:18.861Z,7.80
2019-05-20T01:08:18.854Z,8.40
2019-05-20T01:09:18.836Z,8.70
2019-05-20T01:10:18.846Z,8.50
2019-05-20T01:11:18.882Z,8.80
2019-05-20T01:12:18.838Z,8.90
2019-05-20T01:13:18.789Z,7.00
2019-05-20T01:14:18.966Z,7.90
2019-05-20T01:15:18.782Z,10.20
2019-05-20T01:16:18.779Z,9.40
2019-05-20T01:17:18.746Z,9.50
2019-05-20T01:18:18.738Z,8.30
2019-05-20T01:19:18.732Z,11.10
2019-05-20T01:20:18.732Z,9.90
2019-05-20T01:21:18.713Z,8.40
2019-05-20T01:22:18.691Z,10.60
2019-05-20T01:23:18.677Z,8.30
2019-05-20T01:24:18.666Z,9.20
2019-05-20T01:25:18.668Z,9.20
2019-05-20T01:26:18.652Z,8.80
2019-05-20T01:27:18.633Z,9.80
2019-05-20T01:28:18.625Z,8.20
2019-05-20T01:29:18.613Z,6.70
2019-05-20T01:30:18.617Z,8.70
2019-05-20T01:31:18.589Z,14.20
2019-05-20T01:32:18.622Z,10.70
2019-05-20T01:33:18.567Z,9.20
2019-05-20T01:34:18.557Z,12.20
2019-05-20T01:35:18.554Z,9.70
2019-05-20T01:36:18.589Z,9.30
2019-05-20T01:37:18.527Z,8.90
2019-05-20T01:38:18.521Z,7.20
2019-05-20T01:39:18.502Z,9.10
2019-05-20T01:40:18.504Z,10.80
2019-05-20T01:41:18.530Z,9.80
2019-05-20T01:42:18.477Z,13.80
2019-05-20T01:43:18.542Z,8.30
2019-05-20T01:44:18.443Z,8.60
2019-05-20T01:45:32.621Z,9.90
2019-05-20T01:46:18.421Z,10.60
2019-05-20T01:47:18.411Z,11.40
2019-05-20T01:48:18.400Z,9.70
2019-05-20T01:49:18.386Z,11.60
2019-05-20T01:50:18.378Z,12.00
2019-05-20T01:51:18.367Z,11.40
2019-05-20T01:52:18.363Z,8.90
2019-05-20T01:53:18.348Z,10.40
2019-05-20T01:54:18.332Z,10.00
2019-05-20T01:55:18.322Z,11.30
2019-05-20T01:56:18.315Z,10.20
2019-05-20T01:57:18.301Z,10.80
2019-05-20T01:58:18.288Z,10.80
2019-05-20T01:59:18.279Z,11.70
2019-05-20T02:00:18.281Z,11.20
2019-05-20T02:01:18.267Z,8.80
2019-05-20T02:02:18.241Z,10.40
2019-05-20T02:03:31.193Z,10.10
2019-05-20T02:04:19.220Z,9.70
2019-05-20T02:05:18.325Z,10.60
2019-05-20T02:06:18.203Z,12.20
2019-05-20T02:07:18.208Z,10.90
2019-05-20T02:08:18.182Z,9.80
2019-05-20T02:09:18.168Z,10.70
2019-05-20T02:10:18.171Z,11.10
2019-05-20T02:11:18.200Z,11.80
2019-05-20T02:12:18.200Z,11.50
2019-05-20T02:13:18.160Z,10.10
2019-05-20T02:14:18.106Z,10.70
2019-05-20T02:15:18.095Z,10.80
2019-05-20T02:16:18.095Z,11.60
2019-05-20T02:17:18.082Z,13.40
2019-05-20T02:18:18.062Z,10.50
2019-05-20T02:19:18.051Z,10.80
2019-05-20T02:20:18.040Z,11.20
2019-05-20T02:21:18.041Z,13.60
2019-05-20T02:22:18.024Z,17.00
2019-05-20T02:23:18.013Z,13.80
2019-05-20T02:24:17.995Z,10.70
2019-05-20T02:25:17.987Z,11.90
2019-05-20T02:26:17.998Z,9.80
2019-05-20T02:27:18.006Z,14.60
2019-05-20T02:28:17.990Z,11.50
2019-05-20T02:29:17.940Z,11.10
2019-05-20T02:30:17.938Z,12.00
2019-05-20T02:31:17.927Z,14.20
2019-05-20T02:32:17.915Z,9.70
2019-05-20T02:33:17.908Z,12.00
2019-05-20T02:34:17.907Z,11.00
2019-05-20T02:35:17.872Z,13.80
2019-05-20T02:36:17.869Z,12.30
2019-05-20T02:37:17.852Z,14.70
2019-05-20T02:38:17.924Z,13.30
2019-05-20T02:39:17.831Z,11.00
2019-05-20T02:40:17.822Z,12.40
2019-05-20T02:41:17.809Z,12.20
2019-05-20T02:42:17.795Z,12.50
2019-05-20T02:43:17.789Z,12.50
2019-05-20T02:44:17.779Z,10.40
2019-05-20T02:45:17.764Z,11.40
2019-05-20T02:46:17.764Z,13.00
2019-05-20T02:47:17.744Z,12.20
2019-05-20T02:48:17.733Z,15.00
2019-05-20T02:49:17.823Z,11.20
2019-05-20T02:50:17.719Z,10.40
2019-05-20T02:51:17.713Z,12.10
2019-05-20T02:52:17.687Z,14.50
2019-05-20T02:53:17.683Z,13.80
2019-05-20T02:54:17.669Z,12.30
2019-05-20T02:55:17.656Z,13.50
2019-05-20T02:56:17.669Z,12.80
2019-05-20T02:57:17.637Z,12.20
2019-05-20T02:58:17.621Z,16.00
2019-05-20T02:59:17.608Z,14.40
2019-05-20T03:00:17.616Z,14.00
2019-05-20T03:01:17.607Z,16.30
2019-05-20T03:02:17.577Z,11.40
2019-05-20T03:03:17.565Z,13.30
2019-05-20T03:04:17.553Z,12.10
2019-05-20T03:05:17.551Z,14.10
2019-05-20T03:06:17.531Z,14.50
2019-05-20T03:07:17.525Z,14.70
2019-05-20T03:08:17.512Z,12.20
2019-05-20T03:09:17.510Z,16.00
2019-05-20T03:10:17.491Z,12.40
2019-05-20T03:11:17.590Z,13.80
2019-05-20T03:12:17.473Z,12.90
2019-05-20T03:13:17.453Z,12.60
2019-05-20T03:14:17.441Z,13.00
2019-05-20T03:15:17.439Z,12.70
2019-05-20T03:16:17.425Z,11.20
2019-05-20T03:17:17.438Z,13.00
2019-05-20T03:18:17.397Z,13.20
2019-05-20T03:19:17.388Z,13.10
2019-05-20T03:20:17.381Z,12.80
2019-05-20T03:21:17.448Z,13.90
2019-05-20T03:22:17.365Z,12.10
2019-05-20T03:23:17.392Z,13.40
2019-05-20T03:24:17.336Z,11.20
2019-05-20T03:25:17.322Z,14.80
2019-05-20T03:26:17.334Z,13.00
2019-05-20T03:27:17.307Z,13.50
2019-05-20T03:28:17.294Z,13.40
2019-05-20T03:29:17.281Z,13.00
2019-05-20T03:30:17.283Z,12.20
2019-05-20T03:31:17.286Z,12.70
2019-05-20T03:32:17.254Z,16.30
2019-05-20T03:33:17.297Z,16.10
2019-05-20T03:34:41.642Z,16.40
2019-05-20T03:35:18.218Z,14.10
2019-05-20T03:36:17.198Z,14.50
2019-05-20T03:37:17.198Z,14.10
2019-05-20T03:38:17.188Z,15.30
2019-05-20T03:39:17.175Z,12.30
2019-05-20T03:40:17.218Z,14.10
2019-05-20T03:41:17.148Z,14.60
2019-05-20T03:42:17.181Z,12.10
2019-05-20T03:43:17.125Z,15.30
2019-05-20T03:44:17.111Z,12.90
2019-05-20T03:45:17.106Z,13.30
2019-05-20T03:46:17.091Z,12.20
2019-05-20T03:47:17.076Z,16.30
2019-05-20T03:48:17.070Z,15.00
2019-05-20T03:49:17.062Z,15.70
2019-05-20T03:50:17.047Z,16.40
2019-05-20T03:51:17.049Z,15.20
2019-05-20T03:52:17.027Z,14.30
2019-05-20T03:53:17.014Z,20.20
2019-05-20T03:54:17.000Z,15.10
2019-05-20T03:55:16.996Z,15.10
2019-05-20T03:56:16.981Z,13.00
2019-05-20T03:57:16.981Z,13.70
2019-05-20T03:58:16.973Z,13.80
2019-05-20T03:59:16.947Z,13.50
2019-05-20T04:00:16.946Z,16.10
2019-05-20T04:01:16.932Z,16.00
2019-05-20T04:02:16.926Z,13.40
2019-05-20T04:03:16.910Z,13.10
2019-05-20T04:04:16.890Z,13.30
2019-05-20T04:05:16.882Z,14.30
2019-05-20T04:06:16.873Z,16.90
2019-05-20T04:07:16.871Z,14.00
2019-05-20T04:08:16.857Z,16.70
2019-05-20T04:09:16.842Z,13.30
2019-05-20T04:10:16.892Z,13.10
2019-05-20T04:11:16.826Z,16.10
2019-05-20T04:12:16.977Z,17.50
2019-05-20T04:13:16.816Z,12.80
2019-05-20T04:14:16.796Z,14.10
2019-05-20T04:15:16.828Z,15.70
2019-05-20T04:16:16.761Z,13.90
2019-05-20T04:17:16.752Z,13.80
2019-05-20T04:18:16.739Z,12.20
2019-05-20T04:19:16.724Z,15.00
2019-05-20T04:20:16.716Z,14.90
2019-05-20T04:21:16.702Z,18.40
2019-05-20T04:22:16.698Z,13.80
2019-05-20T04:23:16.699Z,18.00
2019-05-20T04:24:16.816Z,14.50
2019-05-20T04:25:16.671Z,16.50
2019-05-20T04:26:16.655Z,16.10
2019-05-20T04:27:16.636Z,19.10
2019-05-20T04:28:16.635Z,14.50
2019-05-20T04:29:16.616Z,16.50
2019-05-20T04:30:19.022Z,15.00
2019-05-20T04:31:16.662Z,16.40
2019-05-20T04:32:16.579Z,13.00
2019-05-20T04:33:16.599Z,15.40
2019-05-20T04:34:16.557Z,14.80
2019-05-20T04:35:22.508Z,16.60
2019-05-20T04:36:17.534Z,14.50
2019-05-20T04:37:16.524Z,14.20
2019-05-20T04:38:16.530Z,18.10
2019-05-20T04:39:16.623Z,14.30
2019-05-20T04:40:16.497Z,16.00
2019-05-20T04:41:16.479Z,15.30
2019-05-20T04:42:16.470Z,17.80
2019-05-20T04:43:16.463Z,13.70
2019-05-20T04:44:16.449Z,12.00
2019-05-20T04:45:16.435Z,19.80
2019-05-20T04:46:16.429Z,14.30
2019-05-20T04:47:16.428Z,14.10
2019-05-20T04:48:16.411Z,13.10
2019-05-20T04:49:16.421Z,12.70
2019-05-20T04:50:16.382Z,13.50
2019-05-20T04:51:16.390Z,12.70
2019-05-20T04:52:16.367Z,15.30
2019-05-20T04:53:16.396Z,15.00
2019-05-20T04:54:16.350Z,18.20
2019-05-20T04:55:16.327Z,17.20
2019-05-20T04:56:16.317Z,15.80
2019-05-20T04:57:16.333Z,18.80
2019-05-20T04:58:16.329Z,15.30
2019-05-20T04:59:16.311Z,15.90
2019-05-20T05:00:16.328Z,14.00
2019-05-20T05:01:16.259Z,13.90
2019-05-20T05:02:16.250Z,14.50
2019-05-20T05:03:16.239Z,15.50
2019-05-20T05:04:16.240Z,13.90
2019-05-20T05:05:16.216Z,15.00
2019-05-20T05:06:16.207Z,14.40
2019-05-20T05:07:16.194Z,16.90
2019-05-20T05:08:16.190Z,14.00
2019-05-20T05:09:16.189Z,15.30
2019-05-20T05:10:16.162Z,16.60
2019-05-20T05:11:16.150Z,16.00
2019-05-20T05:12:16.140Z,15.80
2019-05-20T05:13:16.129Z,18.40
2019-05-20T05:14:16.126Z,14.60
2019-05-20T05:15:16.111Z,14.60
2019-05-20T05:16:16.094Z,14.10
2019-05-20T05:17:16.085Z,14.70
2019-05-20T05:18:16.077Z,14.20
2019-05-20T05:19:16.076Z,18.90
2019-05-20T05:20:18.446Z,12.80
2019-05-20T05:21:16.054Z,14.90
2019-05-20T05:22:16.062Z,14.40
2019-05-20T05:23:16.017Z,13.20
2019-05-20T05:24:16.013Z,14.20
2019-05-20T05:25:15.997Z,13.80
2019-05-20T05:26:15.988Z,17.70
2019-05-20T05:27:15.995Z,17.30
2019-05-20T05:28:15.965Z,16.70
2019-05-20T05:29:15.967Z,13.60
2019-05-20T05:30:15.943Z,15.80
2019-05-20T05:31:15.996Z,14.30
2019-05-20T05:32:15.932Z,14.20
2019-05-20T05:33:15.917Z,15.10
2019-05-20T05:34:15.955Z,15.20
2019-05-20T05:35:15.896Z,14.90
2019-05-20T05:36:15.878Z,13.60
2019-05-20T05:37:15.875Z,16.70
2019-05-20T05:38:15.868Z,15.10
2019-05-20T05:39:15.862Z,15.80
2019-05-20T05:40:15.833Z,15.50
2019-05-20T05:41:15.829Z,14.80
2019-05-20T05:42:15.827Z,13.50
2019-05-20T05:43:15.854Z,16.00
2019-05-20T05:44:15.939Z,13.20
2019-05-20T05:45:15.783Z,14.10
2019-05-20T05:46:15.768Z,14.90
2019-05-20T05:47:15.758Z,16.60
2019-05-20T05:48:15.749Z,14.90
2019-05-20T05:49:15.748Z,11.80
2019-05-20T05:50:15.725Z,14.50
2019-05-20T05:51:15.712Z,14.00
2019-05-20T05:52:15.703Z,15.70
2019-05-20T05:53:15.693Z,15.00
2019-05-20T05:54:15.690Z,13.90
2019-05-20T05:55:15.680Z,14.00
2019-05-20T05:56:15.667Z,13.70
2019-05-20T05:57:15.648Z,14.20
2019-05-20T05:58:15.637Z,17.10
2019-05-20T05:59:15.660Z,15.50
2019-05-20T06:00:15.623Z,15.00
2019-05-20T06:01:15.606Z,17.80
2019-05-20T06:02:15.603Z,15.50
2019-05-20T06:03:15.582Z,14.50
2019-05-20T06:04:15.571Z,16.30
2019-05-20T06:05:15.579Z,18.30
2019-05-20T06:06:15.598Z,17.90
2019-05-20T06:07:15.550Z,14.80
2019-05-20T06:08:15.529Z,16.50
2019-05-20T06:09:15.518Z,13.20
2019-05-20T06:10:15.598Z,13.50
2019-05-20T06:11:15.502Z,19.10
2019-05-20T06:12:15.506Z,17.20
2019-05-20T06:13:15.631Z,20.40
2019-05-20T06:14:15.464Z,17.00
2019-05-20T06:15:15.457Z,17.40
2019-05-20T06:16:15.467Z,15.10
2019-05-20T06:17:15.432Z,16.60
2019-05-20T06:18:15.423Z,15.50
2019-05-20T06:19:15.408Z,17.40
2019-05-20T06:20:15.424Z,16.10
2019-05-20T06:21:15.388Z,16.80
2019-05-20T06:22:15.420Z,20.00
2019-05-20T06:23:15.374Z,18.00
2019-05-20T06:24:15.389Z,16.70
2019-05-20T06:25:15.349Z,18.50
2019-05-20T06:26:15.352Z,18.60
2019-05-20T06:27:15.321Z,14.70
2019-05-20T06:28:15.320Z,15.00
2019-05-20T06:29:15.304Z,16.50
2019-05-20T06:30:15.318Z,17.20
2019-05-20T06:31:15.308Z,17.80
2019-05-20T06:32:15.575Z,15.30
2019-05-20T06:33:15.263Z,14.80
2019-05-20T06:34:15.271Z,14.40
2019-05-20T06:35:15.328Z,14.00
2019-05-20T06:36:26.414Z,14.80
2019-05-20T06:37:16.218Z,19.20
2019-05-20T06:38:15.202Z,16.10
2019-05-20T06:39:15.215Z,17.20
2019-05-20T06:40:15.231Z,16.00
2019-05-20T06:41:15.169Z,16.80
2019-05-20T06:42:15.164Z,13.70
2019-05-20T06:43:15.151Z,16.50
2019-05-20T06:44:15.137Z,15.10
2019-05-20T06:45:15.192Z,18.40
2019-05-20T06:46:15.116Z,17.20
2019-05-20T06:47:15.108Z,14.80
2019-05-20T06:48:15.098Z,14.10
2019-05-20T06:49:15.083Z,15.50
2019-05-20T06:50:15.100Z,14.60
2019-05-20T06:51:15.079Z,13.20
2019-05-20T06:52:15.051Z,13.20
2019-05-20T06:53:15.086Z,15.50
2019-05-20T06:54:15.054Z,15.70
2019-05-20T06:55:15.075Z,15.40
2019-05-20T06:56:15.038Z,13.20
2019-05-20T06:57:15.760Z,12.10
2019-05-20T06:58:14.990Z,14.10
2019-05-20T06:59:15.024Z,14.60
2019-05-20T07:00:14.973Z,13.70
2019-05-20T07:01:14.951Z,14.50
2019-05-20T07:02:14.944Z,15.00
2019-05-20T07:03:14.937Z,16.10
2019-05-20T07:04:14.947Z,13.80
2019-05-20T07:05:14.922Z,12.80
2019-05-20T07:06:14.906Z,16.60
2019-05-20T07:07:20.887Z,14.00
2019-05-20T07:08:15.875Z,13.50
2019-05-20T07:09:14.865Z,18.50
2019-05-20T07:10:14.890Z,16.90
2019-05-20T07:11:14.843Z,17.90
2019-05-20T07:12:14.840Z,17.80
2019-05-20T07:13:16.243Z,15.50
2019-05-20T07:14:14.822Z,17.30
2019-05-20T07:15:14.824Z,15.90
2019-05-20T07:16:14.814Z,15.60
2019-05-20T07:17:14.795Z,16.50
2019-05-20T07:18:14.777Z,18.30
2019-05-20T07:19:14.760Z,18.00
2019-05-20T07:20:14.753Z,16.30
2019-05-20T07:21:14.738Z,17.40
2019-05-20T07:22:14.729Z,14.60
2019-05-20T07:23:14.717Z,15.30
2019-05-20T07:24:14.710Z,14.90
2019-05-20T07:25:14.705Z,14.80
2019-05-20T07:26:14.734Z,17.20
2019-05-20T07:27:14.677Z,15.00
2019-05-20T07:28:14.659Z,15.40
2019-05-20T07:29:14.656Z,15.80
2019-05-20T07:30:15.702Z,15.70
2019-05-20T07:31:14.636Z,16.40
2019-05-20T07:32:14.640Z,14.50
2019-05-20T07:33:14.609Z,14.80
2019-05-20T07:34:14.601Z,16.60
2019-05-20T07:35:28.710Z,15.00
2019-05-20T07:36:15.574Z,13.30
2019-05-20T07:37:14.606Z,14.20
2019-05-20T07:38:14.557Z,16.90
2019-05-20T07:39:14.562Z,15.60
2019-05-20T07:40:14.529Z,17.40
2019-05-20T07:41:14.824Z,14.70
2019-05-20T07:42:14.541Z,14.40
2019-05-20T07:43:14.558Z,14.60
2019-05-20T07:44:14.547Z,14.70
2019-05-20T07:45:14.576Z,17.40
2019-05-20T07:46:14.509Z,14.50
2019-05-20T07:47:14.501Z,12.70
2019-05-20T07:48:14.502Z,13.50
2019-05-20T07:49:14.429Z,17.10
2019-05-20T07:50:14.560Z,15.60
2019-05-20T07:51:14.414Z,14.00
2019-05-20T07:52:14.442Z,16.00
2019-05-20T07:53:14.399Z,14.20
2019-05-20T07:54:14.385Z,17.40
2019-05-20T07:55:14.526Z,12.30
2019-05-20T07:56:14.356Z,14.20
2019-05-20T07:57:14.350Z,12.30
2019-05-20T07:58:14.330Z,14.40
2019-05-20T07:59:14.347Z,17.40
2019-05-20T08:00:14.308Z,15.00
2019-05-20T08:01:14.304Z,14.50
2019-05-20T08:02:14.319Z,11.40
2019-05-20T08:03:14.278Z,13.50
2019-05-20T08:04:14.338Z,11.50
2019-05-20T08:05:14.269Z,12.80
2019-05-20T08:06:14.245Z,13.20
2019-05-20T08:07:27.379Z,11.30
2019-05-20T08:08:15.222Z,11.00
2019-05-20T08:09:14.223Z,10.40
2019-05-20T08:10:14.267Z,9.80
2019-05-20T08:11:14.616Z,10.00
2019-05-20T08:12:14.178Z,14.30
2019-05-20T08:13:14.174Z,11.40
2019-05-20T08:14:14.159Z,12.50
2019-05-20T08:15:14.152Z,10.30
2019-05-20T08:16:14.138Z,8.60
2019-05-20T08:17:14.128Z,9.10
2019-05-20T08:18:14.148Z,10.50
2019-05-20T08:19:14.103Z,11.30
2019-05-20T08:20:14.109Z,10.90
2019-05-20T08:21:14.115Z,10.40
2019-05-20T08:22:14.175Z,11.20
2019-05-20T08:23:14.060Z,11.40
2019-05-20T08:24:14.148Z,11.10
2019-05-20T08:25:14.050Z,13.00
2019-05-20T08:26:14.058Z,10.10
2019-05-20T08:27:14.041Z,10.70
2019-05-20T08:28:14.004Z,10.90
2019-05-20T08:29:13.995Z,10.50
2019-05-20T08:30:14.438Z,13.00
2019-05-20T08:31:14.000Z,10.90
2019-05-20T08:32:13.971Z,14.30
2019-05-20T08:33:13.970Z,12.80
2019-05-20T08:34:13.957Z,10.60
2019-05-20T08:35:13.942Z,13.20
2019-05-20T08:36:13.942Z,13.90
2019-05-20T08:37:14.062Z,11.30
2019-05-20T08:38:13.958Z,10.20
2019-05-20T08:39:13.956Z,13.00
2019-05-20T08:40:13.876Z,12.50
2019-05-20T08:41:13.868Z,13.70
2019-05-20T08:42:13.872Z,11.20
2019-05-20T08:43:13.881Z,13.90
2019-05-20T08:44:13.870Z,16.60
2019-05-20T08:45:13.838Z,11.50
2019-05-20T08:46:13.878Z,14.40
2019-05-20T08:47:13.853Z,12.40
2019-05-20T08:48:13.828Z,11.90
2019-05-20T08:49:13.986Z,17.20
2019-05-20T08:50:16.300Z,9.40
2019-05-20T08:51:13.756Z,12.40
2019-05-20T08:52:13.763Z,12.40
2019-05-20T08:53:13.735Z,12.60
2019-05-20T08:54:13.730Z,10.50
2019-05-20T08:55:13.715Z,13.10
2019-05-20T08:56:13.709Z,8.30
2019-05-20T08:57:13.732Z,10.80
2019-05-20T08:58:13.687Z,9.60
2019-05-20T08:59:13.674Z,10.40
2019-05-20T09:00:13.661Z,10.90
2019-05-20T09:01:13.674Z,11.80
2019-05-20T09:02:13.652Z,9.30
2019-05-20T09:03:13.627Z,13.20
2019-05-20T09:04:13.616Z,9.70
2019-05-20T09:05:13.609Z,10.60
2019-05-20T09:06:13.607Z,11.10
2019-05-20T09:07:13.599Z,9.90
2019-05-20T09:08:13.630Z,13.10
2019-05-20T09:09:13.566Z,10.20
2019-05-20T09:10:13.550Z,10.00
2019-05-20T09:11:13.540Z,10.80
2019-05-20T09:12:13.545Z,9.10
2019-05-20T09:13:13.524Z,10.20
2019-05-20T09:14:13.510Z,10.10
2019-05-20T09:15:13.505Z,9.30
2019-05-20T09:16:13.489Z,8.40
2019-05-20T09:17:13.490Z,9.10
2019-05-20T09:18:13.473Z,12.80
2019-05-20T09:19:13.453Z,11.00
2019-05-20T09:20:13.480Z,9.90
2019-05-20T09:21:13.691Z,11.60
2019-05-20T09:22:13.430Z,11.50
2019-05-20T09:23:13.425Z,9.90
2019-05-20T09:24:13.402Z,9.80
2019-05-20T09:25:13.673Z,9.40
2019-05-20T09:26:13.376Z,10.90
2019-05-20T09:27:13.380Z,10.10
2019-05-20T09:28:13.356Z,12.70
2019-05-20T09:29:13.350Z,9.10
2019-05-20T09:30:13.343Z,9.10
2019-05-20T09:31:13.502Z,9.20
2019-05-20T09:32:13.323Z,10.20
2019-05-20T09:33:13.343Z,10.50
2019-05-20T09:34:13.302Z,11.20
2019-05-20T09:35:13.304Z,10.20
2019-05-20T09:36:13.270Z,9.90
2019-05-20T09:37:13.327Z,12.30
2019-05-20T09:38:20.274Z,9.70
2019-05-20T09:39:14.240Z,9.30
2019-05-20T09:40:13.249Z,10.70
2019-05-20T09:41:13.232Z,9.10
2019-05-20T09:42:13.218Z,13.00
2019-05-20T09:43:13.220Z,13.70
2019-05-20T09:44:13.188Z,10.70
2019-05-20T09:45:13.173Z,9.10
2019-05-20T09:46:13.166Z,9.10
2019-05-20T09:47:13.170Z,16.20
2019-05-20T09:48:13.150Z,10.70
2019-05-20T09:49:13.131Z,9.50
2019-05-20T09:50:13.121Z,11.20
2019-05-20T09:51:13.113Z,9.10
2019-05-20T09:52:13.125Z,10.00
2019-05-20T09:53:13.108Z,8.60
2019-05-20T09:54:13.074Z,11.70
2019-05-20T09:55:13.066Z,10.40
2019-05-20T09:56:13.114Z,9.70
2019-05-20T09:57:13.043Z,10.30
2019-05-20T09:58:13.057Z,12.10
2019-05-20T09:59:16.202Z,9.30
2019-05-20T10:00:13.011Z,12.10
2019-05-20T10:01:13.003Z,12.50
2019-05-20T10:02:12.990Z,10.80
2019-05-20T10:03:12.981Z,12.00
2019-05-20T10:04:12.971Z,10.90
2019-05-20T10:05:12.960Z,11.10
2019-05-20T10:06:13.063Z,11.50
2019-05-20T10:07:12.935Z,12.00
2019-05-20T10:08:12.929Z,12.60
2019-05-20T10:09:12.914Z,12.20
2019-05-20T10:10:12.900Z,11.50
2019-05-20T10:11:12.892Z,10.80
2019-05-20T10:12:12.880Z,11.40
2019-05-20T10:13:12.913Z,10.90
2019-05-20T10:14:12.864Z,10.30
2019-05-20T10:15:12.845Z,10.70
2019-05-20T10:16:12.835Z,10.90
2019-05-20T10:17:12.822Z,9.20
2019-05-20T10:18:12.831Z,11.90
2019-05-20T10:19:12.803Z,10.80
2019-05-20T10:20:12.791Z,11.20
2019-05-20T10:21:12.820Z,11.50
2019-05-20T10:22:12.781Z,12.40
2019-05-20T10:23:15.785Z,11.20
2019-05-20T10:24:12.746Z,11.40
2019-05-20T10:25:12.784Z,9.70
2019-05-20T10:26:12.725Z,10.60
2019-05-20T10:27:12.716Z,11.00
2019-05-20T10:28:12.811Z,9.50
2019-05-20T10:29:12.696Z,12.50
2019-05-20T10:30:12.703Z,12.30
2019-05-20T10:31:12.673Z,12.20
2019-05-20T10:32:12.661Z,11.60
2019-05-20T10:33:12.669Z,13.80
2019-05-20T10:34:12.639Z,11.30
2019-05-20T10:35:12.630Z,12.90
2019-05-20T10:36:12.618Z,12.70
2019-05-20T10:37:12.605Z,12.10
2019-05-20T10:38:12.635Z,11.20
2019-05-20T10:39:12.584Z,10.90
2019-05-20T10:40:12.573Z,10.30
2019-05-20T10:41:12.609Z,11.40
2019-05-20T10:42:12.560Z,13.20
2019-05-20T10:43:12.560Z,12.30
2019-05-20T10:44:12.534Z,13.40
2019-05-20T10:45:12.559Z,10.40
2019-05-20T10:46:12.534Z,12.60
2019-05-20T10:47:12.511Z,9.70
2019-05-20T10:48:12.507Z,9.50
2019-05-20T10:49:12.474Z,11.20
2019-05-20T10:50:12.529Z,9.50
2019-05-20T10:51:12.452Z,13.60
2019-05-20T10:52:12.443Z,9.60
2019-05-20T10:53:12.429Z,9.10
2019-05-20T10:54:12.421Z,10.50
2019-05-20T10:55:12.423Z,9.70
2019-05-20T10:56:12.767Z,10.10
2019-05-20T10:57:12.385Z,12.60
2019-05-20T10:58:12.374Z,12.00
2019-05-20T10:59:12.674Z,9.10
2019-05-20T11:00:12.358Z,11.30
2019-05-20T11:01:12.377Z,12.50
2019-05-20T11:02:12.331Z,9.70
2019-05-20T11:03:12.333Z,11.30
2019-05-20T11:04:12.320Z,11.90
2019-05-20T11:05:12.381Z,12.50
2019-05-20T11:06:12.474Z,12.10
2019-05-20T11:07:12.282Z,12.30
2019-05-20T11:08:12.284Z,12.80
2019-05-20T11:09:14.398Z,12.10
2019-05-20T11:10:12.244Z,11.30
2019-05-20T11:11:14.446Z,10.90
2019-05-20T11:12:12.338Z,11.50
2019-05-20T11:13:12.215Z,15.50
2019-05-20T11:14:12.221Z,14.00
2019-05-20T11:15:12.258Z,12.30
2019-05-20T11:16:12.182Z,12.80
2019-05-20T11:17:15.054Z,13.10
2019-05-20T11:18:12.170Z,14.90
2019-05-20T11:19:12.155Z,13.50
2019-05-20T11:20:12.144Z,14.70
2019-05-20T11:21:12.131Z,15.00
2019-05-20T11:22:12.112Z,15.50
2019-05-20T11:23:12.112Z,15.60
2019-05-20T11:24:12.103Z,16.90
2019-05-20T11:25:12.082Z,18.00
2019-05-20T11:26:12.077Z,16.50
2019-05-20T11:27:12.066Z,17.40
2019-05-20T11:28:12.327Z,14.30
2019-05-20T11:29:12.077Z,16.90
2019-05-20T11:30:12.030Z,16.10
2019-05-20T11:31:12.026Z,16.80
2019-05-20T11:32:12.012Z,16.40
2019-05-20T11:33:12.015Z,18.10
2019-05-20T11:34:12.115Z,17.40
2019-05-20T11:35:11.997Z,19.70
2019-05-20T11:36:11.961Z,18.30
2019-05-20T11:37:11.954Z,19.40
2019-05-20T11:38:11.975Z,19.60
2019-05-20T11:39:11.955Z,18.30
2019-05-20T11:40:12.617Z,21.20
2019-05-20T11:41:11.904Z,24.20
2019-05-20T11:42:11.895Z,26.20
2019-05-20T11:43:11.884Z,24.00
2019-05-20T11:44:12.163Z,21.80
2019-05-20T11:45:11.865Z,24.20
2019-05-20T11:46:11.850Z,24.20
2019-05-20T11:47:11.841Z,24.60
2019-05-20T11:48:11.848Z,24.20
2019-05-20T11:49:11.835Z,26.10
2019-05-20T11:50:11.806Z,28.00
2019-05-20T11:51:11.796Z,30.60
2019-05-20T11:52:11.784Z,26.70
2019-05-20T11:53:11.791Z,29.50
2019-05-20T11:54:11.763Z,28.70
2019-05-20T11:55:11.763Z,25.90
2019-05-20T11:56:12.196Z,23.80
2019-05-20T11:57:11.731Z,28.10
2019-05-20T11:58:15.629Z,23.10
2019-05-20T11:59:11.709Z,27.40
2019-05-20T12:00:11.697Z,25.90
2019-05-20T12:01:11.691Z,27.30
2019-05-20T12:02:11.695Z,30.90
2019-05-20T12:03:11.666Z,31.20
2019-05-20T12:04:11.654Z,26.50
2019-05-20T12:05:11.657Z,31.00
2019-05-20T12:06:11.673Z,35.10
2019-05-20T12:07:11.634Z,29.50
2019-05-20T12:08:11.610Z,34.70
2019-05-20T12:09:11.600Z,35.20
2019-05-20T12:10:11.603Z,36.80
2019-05-20T12:11:11.583Z,30.80
2019-05-20T12:12:11.577Z,27.00
2019-05-20T12:13:11.570Z,28.60
2019-05-20T12:14:11.581Z,31.70
2019-05-20T12:15:11.543Z,31.10
2019-05-20T12:16:11.570Z,30.20
2019-05-20T12:17:11.525Z,28.50
2019-05-20T12:18:11.522Z,28.20
2019-05-20T12:19:11.507Z,30.60
2019-05-20T12:20:12.795Z,26.50
2019-05-20T12:21:11.513Z,29.40
2019-05-20T12:22:11.456Z,27.50
2019-05-20T12:23:11.446Z,21.20
2019-05-20T12:24:11.443Z,25.30
2019-05-20T12:25:11.508Z,22.60
2019-05-20T12:26:11.450Z,24.50
2019-05-20T12:27:11.402Z,25.20
2019-05-20T12:28:11.415Z,25.20
2019-05-20T12:29:11.384Z,24.10
2019-05-20T12:30:11.398Z,21.30
2019-05-20T12:31:11.359Z,23.90
2019-05-20T12:32:11.400Z,30.40
2019-05-20T12:33:19.649Z,26.30
2019-05-20T12:34:12.326Z,35.70
2019-05-20T12:35:11.356Z,32.40
2019-05-20T12:36:11.386Z,29.00
2019-05-20T12:37:11.293Z,27.20
2019-05-20T12:38:11.292Z,23.50
2019-05-20T12:39:11.271Z,25.90
2019-05-20T12:40:11.271Z,23.80
2019-05-20T12:41:11.266Z,23.20
2019-05-20T12:42:11.780Z,23.50
2019-05-20T12:43:11.227Z,27.00
2019-05-20T12:44:13.074Z,25.10
2019-05-20T12:45:11.210Z,26.30
2019-05-20T12:46:11.250Z,25.10
2019-05-20T12:47:11.263Z,22.80
2019-05-20T12:48:11.175Z,22.30
2019-05-20T12:49:11.329Z,29.20
2019-05-20T12:50:11.182Z,29.50
2019-05-20T12:51:14.368Z,24.50
2019-05-20T12:52:11.174Z,27.50
2019-05-20T12:53:11.178Z,24.10
2019-05-20T12:54:11.252Z,25.10
2019-05-20T12:55:11.132Z,24.80
2019-05-20T12:56:11.101Z,28.20
2019-05-20T12:57:11.082Z,25.60